createdAt,value
2019-04-28T00:01:21.723Z,65.78
2019-04-28T00:03:51.647Z,65.67
2019-04-28T00:06:21.457Z,65.30
2019-04-28T00:08:51.807Z,65.65
2019-04-28T00:11:21.925Z,65.93
2019-04-28T00:13:53.408Z,65.55
2019-04-28T00:16:23.050Z,65.80
2019-04-28T00:18:52.885Z,65.77
2019-04-28T00:21:32.043Z,65.91
2019-04-28T00:24:13.092Z,65.56
2019-04-28T00:26:51.948Z,65.36
2019-04-28T00:29:21.736Z,65.29
2019-04-28T00:31:51.450Z,65.31
2019-04-28T00:34:21.358Z,65.59
2019-04-28T00:37:05.610Z,65.13
2019-04-28T00:39:35.178Z,64.92
2019-04-28T00:42:05.054Z,65.20
2019-04-28T00:44:34.604Z,65.39
2019-04-28T00:47:04.157Z,65.31
2019-04-28T00:49:49.061Z,65.18
2019-04-28T00:52:21.988Z,64.91
2019-04-28T00:54:52.676Z,65.21
2019-04-28T00:57:23.466Z,64.92
2019-04-28T00:59:58.210Z,64.84
2019-04-28T01:02:43.583Z,64.68
2019-04-28T01:05:13.383Z,64.67
2019-04-28T01:07:42.997Z,64.83
2019-04-28T01:10:13.178Z,64.59
2019-04-28T01:12:42.845Z,64.13
2019-04-28T01:15:20.405Z,64.39
2019-04-28T01:18:04.904Z,64.55
2019-04-28T01:20:34.624Z,64.62
2019-04-28T01:23:04.189Z,64.63
2019-04-28T01:25:33.688Z,64.72
2019-04-28T01:28:03.209Z,64.95
2019-04-28T01:30:59.433Z,64.77
2019-04-28T01:33:50.170Z,64.65
2019-04-28T01:36:20.307Z,65.02
2019-04-28T01:38:50.133Z,64.95
2019-04-28T01:41:19.899Z,64.98
2019-04-28T01:43:49.411Z,65.12
2019-04-28T01:46:19.894Z,64.99
2019-04-28T01:48:49.781Z,64.76
2019-04-28T01:51:20.837Z,65.01
2019-04-28T01:53:50.519Z,65.13
2019-04-28T01:56:20.490Z,65.41
2019-04-28T01:58:51.701Z,65.28
2019-04-28T02:01:21.266Z,65.35
2019-04-28T02:03:50.832Z,65.03
2019-04-28T02:06:20.577Z,65.27
2019-04-28T02:08:51.312Z,65.28
2019-04-28T02:11:20.855Z,65.03
2019-04-28T02:13:50.384Z,65.20
2019-04-28T02:16:20.107Z,65.13
2019-04-28T02:18:49.793Z,65.42
2019-04-28T02:21:50.324Z,65.03
2019-04-28T02:24:33.995Z,65.19
2019-04-28T02:27:03.595Z,65.19
2019-04-28T02:29:33.136Z,65.21
2019-04-28T02:32:03.248Z,64.85
2019-04-28T02:34:33.736Z,64.90
2019-04-28T02:37:03.276Z,64.89
2019-04-28T02:39:32.847Z,64.47
2019-04-28T02:42:02.385Z,64.66
2019-04-28T02:44:35.112Z,64.44
2019-04-28T02:47:03.278Z,64.67
2019-04-28T02:49:45.516Z,65.01
2019-04-28T02:52:22.291Z,64.87
2019-04-28T02:54:51.798Z,64.62
2019-04-28T02:57:21.308Z,64.54
2019-04-28T02:59:51.182Z,64.50
2019-04-28T03:02:21.095Z,64.48
2019-04-28T03:04:50.917Z,64.45
2019-04-28T03:07:21.695Z,64.76
2019-04-28T03:09:52.271Z,65.03
2019-04-28T03:12:22.040Z,65.54
2019-04-28T03:14:51.549Z,65.59
2019-04-28T03:17:21.186Z,65.44
2019-04-28T03:19:51.601Z,65.13
2019-04-28T03:22:21.473Z,65.54
2019-04-28T03:24:52.642Z,65.38
2019-04-28T03:27:32.696Z,65.13
2019-04-28T03:30:12.745Z,65.27
2019-04-28T03:32:53.064Z,65.04
2019-04-28T03:35:15.677Z,64.84
2019-04-28T03:37:45.209Z,65.00
2019-04-28T03:40:14.740Z,65.11
2019-04-28T03:42:44.278Z,65.23
2019-04-28T03:45:21.097Z,64.99
2019-04-28T03:47:51.042Z,64.81
2019-04-28T03:50:20.646Z,64.49
2019-04-28T03:52:51.175Z,64.72
2019-04-28T03:55:21.356Z,65.25
2019-04-28T03:57:51.186Z,65.12
2019-04-28T04:00:22.045Z,65.50
2019-04-28T04:02:51.724Z,65.51
2019-04-28T04:05:21.240Z,65.60
2019-04-28T04:07:50.884Z,65.98
2019-04-28T04:10:31.608Z,66.53
2019-04-28T04:13:06.826Z,66.27
2019-04-28T04:15:55.386Z,66.58
2019-04-28T04:18:30.964Z,66.58
2019-04-28T04:21:00.938Z,66.61
2019-04-28T04:23:31.013Z,66.61
2019-04-28T04:26:01.630Z,66.74
2019-04-28T04:28:31.612Z,66.69
2019-04-28T04:31:03.192Z,66.95
2019-04-28T04:33:32.377Z,66.87
2019-04-28T04:36:02.913Z,66.75
2019-04-28T04:38:32.504Z,66.74
2019-04-28T04:41:02.039Z,67.04
2019-04-28T04:43:31.910Z,67.14
2019-04-28T04:46:16.774Z,66.49
2019-04-28T04:48:47.040Z,66.56
2019-04-28T04:51:16.835Z,66.82
2019-04-28T04:53:46.366Z,66.92
2019-04-28T04:56:15.993Z,66.87
2019-04-28T04:58:45.520Z,66.95
2019-04-28T05:01:34.066Z,66.97
2019-04-28T05:04:32.064Z,66.86
2019-04-28T05:07:01.606Z,66.61
2019-04-28T05:09:31.278Z,66.68
2019-04-28T05:12:00.741Z,66.86
2019-04-28T05:14:30.283Z,67.00
2019-04-28T05:17:00.837Z,66.67
2019-04-28T05:19:30.585Z,66.09
2019-04-28T05:22:00.225Z,66.64
2019-04-28T05:24:40.274Z,66.32
2019-04-28T05:27:09.990Z,66.47
2019-04-28T05:29:39.938Z,66.64
2019-04-28T05:32:10.762Z,66.96
2019-04-28T05:34:46.585Z,66.89
2019-04-28T05:37:12.711Z,66.79
2019-04-28T05:39:42.255Z,66.90
2019-04-28T05:42:12.740Z,67.08
2019-04-28T05:44:42.266Z,66.73
2019-04-28T05:47:11.792Z,67.39
2019-04-28T05:50:03.466Z,67.92
2019-04-28T05:53:01.153Z,67.82
2019-04-28T05:55:42.166Z,67.62
2019-04-28T05:58:19.892Z,67.50
2019-04-28T06:01:10.268Z,67.80
2019-04-28T06:03:40.599Z,67.98
2019-04-28T06:06:10.324Z,67.65
2019-04-28T06:08:57.495Z,68.23
2019-04-28T06:11:31.573Z,68.05
2019-04-28T06:14:01.369Z,68.42
2019-04-28T06:16:30.979Z,67.91
2019-04-28T06:19:00.515Z,67.75
2019-04-28T06:21:30.109Z,67.73
2019-04-28T06:23:59.899Z,68.07
2019-04-28T06:26:29.453Z,68.12
2019-04-28T06:28:59.242Z,68.21
2019-04-28T06:31:28.781Z,67.76
2019-04-28T06:33:58.302Z,67.84
2019-04-28T06:36:27.830Z,68.05
2019-04-28T06:38:58.624Z,68.29
2019-04-28T06:41:28.363Z,67.66
2019-04-28T06:43:57.949Z,67.38
2019-04-28T06:46:27.532Z,67.45
2019-04-28T06:48:57.082Z,67.22
2019-04-28T06:51:26.605Z,66.95
2019-04-28T06:53:56.235Z,66.21
2019-04-28T06:56:25.767Z,65.93
2019-04-28T06:58:59.325Z,66.41
2019-04-28T07:01:26.588Z,66.55
2019-04-28T07:03:56.106Z,66.89
2019-04-28T07:06:25.684Z,65.48
2019-04-28T07:08:55.221Z,64.68
2019-04-28T07:11:24.788Z,65.27
2019-04-28T07:13:54.329Z,64.96
2019-04-28T07:16:23.873Z,65.33
2019-04-28T07:18:53.431Z,64.36
2019-04-28T07:21:42.007Z,63.45
2019-04-28T07:24:11.597Z,63.58
2019-04-28T07:26:42.185Z,63.01
2019-04-28T07:29:11.769Z,63.06
2019-04-28T07:31:41.398Z,62.79
2019-04-28T07:34:10.939Z,62.40
2019-04-28T07:36:40.497Z,63.16
2019-04-28T07:39:10.105Z,61.82
2019-04-28T07:41:39.621Z,62.83
2019-04-28T07:44:09.141Z,62.64
2019-04-28T07:46:38.707Z,61.73
2019-04-28T07:49:08.239Z,62.30
2019-04-28T07:51:48.255Z,62.74
2019-04-28T07:54:19.031Z,62.97
2019-04-28T07:56:48.576Z,62.79
2019-04-28T07:59:18.103Z,63.00
2019-04-28T08:01:47.930Z,62.35
2019-04-28T08:04:17.509Z,62.53
2019-04-28T08:06:47.042Z,62.16
2019-04-28T08:09:17.596Z,61.53
2019-04-28T08:11:47.135Z,62.04
2019-04-28T08:14:19.484Z,62.08
2019-04-28T08:16:47.914Z,62.18
2019-04-28T08:19:18.161Z,61.86
2019-04-28T08:21:47.712Z,61.69
2019-04-28T08:24:17.381Z,61.52
2019-04-28T08:26:46.924Z,61.32
2019-04-28T08:29:16.457Z,61.35
2019-04-28T08:31:55.997Z,61.32
2019-04-28T08:34:25.609Z,60.35
2019-04-28T08:36:55.149Z,60.70
2019-04-28T08:39:26.757Z,60.77
2019-04-28T08:41:55.965Z,61.33
2019-04-28T08:44:25.511Z,60.58
2019-04-28T08:46:55.058Z,60.06
2019-04-28T08:49:24.588Z,60.89
2019-04-28T08:51:54.159Z,60.16
2019-04-28T08:54:23.728Z,60.44
2019-04-28T08:56:53.358Z,60.52
2019-04-28T08:59:22.887Z,59.90
2019-04-28T09:01:52.457Z,59.37
2019-04-28T09:04:21.991Z,59.09
2019-04-28T09:06:51.554Z,59.61
2019-04-28T09:09:21.538Z,59.00
2019-04-28T09:11:51.090Z,59.39
2019-04-28T09:14:20.619Z,58.39
2019-04-28T09:16:50.160Z,56.60
2019-04-28T09:19:19.691Z,56.51
2019-04-28T09:21:49.232Z,55.71
2019-04-28T09:24:18.768Z,55.90
2019-04-28T09:26:48.314Z,56.35
2019-04-28T09:29:17.896Z,56.76
2019-04-28T09:31:47.563Z,56.04
2019-04-28T09:34:27.861Z,56.35
2019-04-28T09:36:48.384Z,56.13
2019-04-28T09:39:19.563Z,55.84
2019-04-28T09:42:14.065Z,56.53
2019-04-28T09:44:43.630Z,55.40
2019-04-28T09:47:13.194Z,54.21
2019-04-28T09:49:42.736Z,54.83
2019-04-28T09:52:12.293Z,55.40
2019-04-28T09:54:41.850Z,54.52
2019-04-28T09:57:11.402Z,54.14
2019-04-28T09:59:42.027Z,53.21
2019-04-28T10:02:11.951Z,53.26
2019-04-28T10:04:42.209Z,52.34
2019-04-28T10:07:12.124Z,52.33
2019-04-28T10:09:41.825Z,51.24
2019-04-28T10:12:11.368Z,50.77
2019-04-28T10:14:40.891Z,51.00
2019-04-28T10:17:10.503Z,52.04
2019-04-28T10:19:40.062Z,50.74
2019-04-28T10:22:09.621Z,50.05
2019-04-28T10:24:39.154Z,51.94
2019-04-28T10:27:09.097Z,51.78
2019-04-28T10:29:38.688Z,49.77
2019-04-28T10:32:08.310Z,49.21
2019-04-28T10:34:37.843Z,49.68
2019-04-28T10:37:07.412Z,49.18
2019-04-28T10:39:46.699Z,49.04
2019-04-28T10:42:17.226Z,48.32
2019-04-28T10:44:48.803Z,49.51
2019-04-28T10:47:18.709Z,49.58
2019-04-28T10:49:48.340Z,49.58
2019-04-28T10:52:17.887Z,50.30
2019-04-28T10:54:47.436Z,52.99
2019-04-28T10:57:17.018Z,53.62
2019-04-28T10:59:46.568Z,53.74
2019-04-28T11:02:16.100Z,55.98
2019-04-28T11:05:08.259Z,56.65
2019-04-28T11:07:32.782Z,55.05
2019-04-28T11:10:13.790Z,57.26
2019-04-28T11:12:43.798Z,53.80
2019-04-28T11:15:19.487Z,53.81
2019-04-28T11:17:50.020Z,53.67
2019-04-28T11:20:20.357Z,51.67
2019-04-28T11:22:49.919Z,54.30
2019-04-28T11:25:19.882Z,52.55
2019-04-28T11:27:49.480Z,52.33
2019-04-28T11:30:19.702Z,54.23
2019-04-28T11:33:03.973Z,50.05
2019-04-28T11:35:33.590Z,51.66
2019-04-28T11:38:03.140Z,51.19
2019-04-28T11:40:32.674Z,51.82
2019-04-28T11:43:02.202Z,52.11
2019-04-28T11:45:31.771Z,52.50
2019-04-28T11:48:01.503Z,52.93
2019-04-28T11:50:31.250Z,52.22
2019-04-28T11:53:00.758Z,49.95
2019-04-28T11:55:30.283Z,50.79
2019-04-28T11:57:59.798Z,52.13
2019-04-28T12:00:32.602Z,50.15
2019-04-28T12:03:02.278Z,48.87
2019-04-28T12:05:38.629Z,49.25
2019-04-28T12:08:08.174Z,49.63
2019-04-28T12:10:43.355Z,48.81
2019-04-28T12:13:35.187Z,48.82
2019-04-28T12:16:21.306Z,48.49
2019-04-28T12:18:55.780Z,49.07
2019-04-28T12:21:25.307Z,48.40
2019-04-28T12:23:54.965Z,47.42
2019-04-28T12:26:24.498Z,48.39
2019-04-28T12:28:54.045Z,46.58
2019-04-28T12:31:23.658Z,46.94
2019-04-28T12:33:53.183Z,47.61
2019-04-28T12:36:22.734Z,49.72
2019-04-28T12:38:52.285Z,48.89
2019-04-28T12:41:22.056Z,47.91
2019-04-28T12:43:51.636Z,47.41
2019-04-28T12:46:21.328Z,46.35
2019-04-28T12:48:54.586Z,47.12
2019-04-28T12:51:24.139Z,48.70
2019-04-28T12:53:56.650Z,48.85
2019-04-28T12:56:26.263Z,49.86
2019-04-28T12:59:00.334Z,50.87
2019-04-28T13:01:37.006Z,53.21
2019-04-28T13:04:14.844Z,55.78
2019-04-28T13:07:01.603Z,56.86
2019-04-28T13:09:32.698Z,58.71
2019-04-28T13:12:02.363Z,58.84
2019-04-28T13:14:32.684Z,59.09
2019-04-28T13:17:02.383Z,59.54
2019-04-28T13:19:32.042Z,58.77
2019-04-28T13:22:01.602Z,58.77
2019-04-28T13:24:31.356Z,58.90
2019-04-28T13:27:01.054Z,57.19
2019-04-28T13:29:30.647Z,57.17
2019-04-28T13:32:00.197Z,57.63
2019-04-28T13:34:31.651Z,57.51
2019-04-28T13:37:02.337Z,57.44
2019-04-28T13:39:51.287Z,58.09
2019-04-28T13:42:20.807Z,58.59
2019-04-28T13:45:01.069Z,57.09
2019-04-28T13:47:31.676Z,57.67
2019-04-28T13:50:17.959Z,56.87
2019-04-28T13:52:47.538Z,56.68
2019-04-28T13:55:36.370Z,56.25
2019-04-28T13:58:06.008Z,55.27
2019-04-28T14:00:53.187Z,55.40
2019-04-28T14:03:40.819Z,54.58
2019-04-28T14:06:13.544Z,55.99
2019-04-28T14:08:43.067Z,55.25
2019-04-28T14:11:12.674Z,54.65
2019-04-28T14:13:42.281Z,56.02
2019-04-28T14:16:11.829Z,56.09
2019-04-28T14:18:41.517Z,55.35
2019-04-28T14:21:11.086Z,56.74
2019-04-28T14:23:40.619Z,56.53
2019-04-28T14:26:10.174Z,54.92
2019-04-28T14:28:39.938Z,53.29
2019-04-28T14:31:09.546Z,53.03
2019-04-28T14:33:39.049Z,51.74
2019-04-28T14:36:08.702Z,51.78
2019-04-28T14:38:38.337Z,51.51
2019-04-28T14:41:07.877Z,51.74
2019-04-28T14:43:37.449Z,49.07
2019-04-28T14:46:07.190Z,48.90
2019-04-28T14:48:36.714Z,48.58
2019-04-28T14:51:06.393Z,47.99
2019-04-28T14:53:35.939Z,49.31
2019-04-28T14:56:07.333Z,48.51
2019-04-28T14:58:36.785Z,48.19
2019-04-28T15:01:19.583Z,49.40
2019-04-28T15:03:50.960Z,49.62
2019-04-28T15:06:29.181Z,49.66
2019-04-28T15:09:32.881Z,50.23
2019-04-28T15:12:04.277Z,50.51
2019-04-28T15:14:34.001Z,50.20
2019-04-28T15:17:03.746Z,49.58
2019-04-28T15:19:33.519Z,49.87
2019-04-28T15:22:03.053Z,49.87
2019-04-28T15:24:32.620Z,50.78
2019-04-28T15:27:02.261Z,51.19
2019-04-28T15:29:31.970Z,49.95
2019-04-28T15:32:01.634Z,49.89
2019-04-28T15:34:31.287Z,48.12
2019-04-28T15:37:09.533Z,48.17
2019-04-28T15:39:32.087Z,48.18
2019-04-28T15:42:01.648Z,48.43
2019-04-28T15:44:31.240Z,48.76
2019-04-28T15:47:00.980Z,49.04
2019-04-28T15:49:30.551Z,49.08
2019-04-28T15:52:00.082Z,49.50
2019-04-28T15:54:29.621Z,49.08
2019-04-28T15:56:59.533Z,49.58
2019-04-28T15:59:30.151Z,49.33
2019-04-28T16:01:59.713Z,48.53
2019-04-28T16:04:29.325Z,48.68
2019-04-28T16:06:58.898Z,48.42
2019-04-28T16:09:28.423Z,48.16
2019-04-28T16:11:57.998Z,48.15
2019-04-28T16:14:27.580Z,48.02
2019-04-28T16:16:57.234Z,47.01
2019-04-28T16:19:26.798Z,46.90
2019-04-28T16:21:56.370Z,47.02
2019-04-28T16:24:25.921Z,47.23
2019-04-28T16:26:55.473Z,47.14
2019-04-28T16:29:25.129Z,47.11
2019-04-28T16:31:54.770Z,47.61
2019-04-28T16:34:24.297Z,47.33
2019-04-28T16:36:53.849Z,46.99
2019-04-28T16:39:23.440Z,47.47
2019-04-28T16:41:52.918Z,46.98
2019-04-28T16:44:22.456Z,47.22
2019-04-28T16:46:52.068Z,47.53
2019-04-28T16:49:21.602Z,47.37
2019-04-28T16:51:51.163Z,47.13
2019-04-28T16:54:20.732Z,47.08
2019-04-28T16:57:22.437Z,47.22
2019-04-28T17:00:11.966Z,47.11
2019-04-28T17:02:52.443Z,47.92
2019-04-28T17:05:23.186Z,48.30
2019-04-28T17:07:53.584Z,48.37
2019-04-28T17:10:23.192Z,48.87
2019-04-28T17:12:52.729Z,48.90
2019-04-28T17:15:22.255Z,48.88
2019-04-28T17:17:51.837Z,49.18
2019-04-28T17:20:21.423Z,49.83
2019-04-28T17:22:50.961Z,49.63
2019-04-28T17:25:20.580Z,49.97
2019-04-28T17:27:50.325Z,49.96
2019-04-28T17:30:20.648Z,50.58
2019-04-28T17:32:50.288Z,50.59
2019-04-28T17:35:20.296Z,51.05
2019-04-28T17:37:49.975Z,51.02
2019-04-28T17:40:19.858Z,51.16
2019-04-28T17:42:49.488Z,51.60
2019-04-28T17:45:19.996Z,52.05
2019-04-28T17:47:50.719Z,52.37
2019-04-28T17:50:21.724Z,51.72
2019-04-28T17:52:51.324Z,51.87
2019-04-28T17:55:20.918Z,51.06
2019-04-28T17:57:50.797Z,51.35
2019-04-28T18:00:32.620Z,50.99
2019-04-28T18:03:18.880Z,50.88
2019-04-28T18:05:53.783Z,51.13
2019-04-28T18:08:24.316Z,51.30
2019-04-28T18:10:53.968Z,52.04
2019-04-28T18:13:23.562Z,51.60
2019-04-28T18:16:07.016Z,51.07
2019-04-28T18:18:42.854Z,51.24
2019-04-28T18:21:12.578Z,51.57
2019-04-28T18:23:42.377Z,51.14
2019-04-28T18:26:11.959Z,51.52
2019-04-28T18:28:41.956Z,51.57
2019-04-28T18:31:29.563Z,52.55
2019-04-28T18:34:21.856Z,53.07
2019-04-28T18:37:00.900Z,53.83
2019-04-28T18:39:48.566Z,54.13
2019-04-28T18:42:26.152Z,54.08
2019-04-28T18:44:56.138Z,54.86
2019-04-28T18:47:25.711Z,55.26
2019-04-28T18:49:55.316Z,55.56
2019-04-28T18:52:25.106Z,55.74
2019-04-28T18:54:54.733Z,55.74
2019-04-28T18:57:24.426Z,56.04
2019-04-28T18:59:54.111Z,56.14
2019-04-28T19:02:38.927Z,56.31
2019-04-28T19:05:10.513Z,56.32
2019-04-28T19:08:16.682Z,56.40
2019-04-28T19:11:03.969Z,56.61
2019-04-28T19:13:36.443Z,56.60
2019-04-28T19:16:25.143Z,56.72
2019-04-28T19:18:56.930Z,56.72
2019-04-28T19:21:26.631Z,56.90
2019-04-28T19:23:56.164Z,57.01
2019-04-28T19:26:25.776Z,56.87
2019-04-28T19:28:55.352Z,57.32
2019-04-28T19:31:25.028Z,57.37
2019-04-28T19:33:55.219Z,57.70
2019-04-28T19:36:25.226Z,57.65
2019-04-28T19:39:03.031Z,57.59
2019-04-28T19:41:26.007Z,57.21
2019-04-28T19:43:57.771Z,57.56
2019-04-28T19:46:28.442Z,57.79
2019-04-28T19:48:58.034Z,57.94
2019-04-28T19:51:32.001Z,58.45
2019-04-28T19:53:59.695Z,58.63
2019-04-28T19:56:37.628Z,59.00
2019-04-28T19:59:16.266Z,58.44
2019-04-28T20:01:47.340Z,59.05
2019-04-28T20:04:17.318Z,59.74
2019-04-28T20:06:47.101Z,59.82
2019-04-28T20:09:16.807Z,59.63
2019-04-28T20:11:46.366Z,59.82
2019-04-28T20:14:16.606Z,59.83
2019-04-28T20:16:46.185Z,59.56
2019-04-28T20:19:15.814Z,59.21
2019-04-28T20:21:46.038Z,59.07
2019-04-28T20:24:15.654Z,59.13
2019-04-28T20:26:45.201Z,58.56
2019-04-28T20:29:14.764Z,58.37
2019-04-28T20:31:44.306Z,58.68
2019-04-28T20:34:13.866Z,58.89
2019-04-28T20:36:53.302Z,58.68
2019-04-28T20:39:27.808Z,58.59
2019-04-28T20:42:01.438Z,58.79
2019-04-28T20:44:31.142Z,58.85
2019-04-28T20:47:00.817Z,58.87
2019-04-28T20:49:30.376Z,58.67
2019-04-28T20:52:00.041Z,58.92
2019-04-28T20:54:29.607Z,59.02
2019-04-28T20:56:59.235Z,59.12
2019-04-28T20:59:28.896Z,59.01
2019-04-28T21:01:58.431Z,59.19
2019-04-28T21:04:28.014Z,59.46
2019-04-28T21:06:57.582Z,59.52
2019-04-28T21:09:27.131Z,59.39
2019-04-28T21:11:56.671Z,60.25
2019-04-28T21:14:26.270Z,60.42
2019-04-28T21:16:55.814Z,60.53
2019-04-28T21:19:25.430Z,60.72
2019-04-28T21:21:55.162Z,61.11
2019-04-28T21:24:25.058Z,60.88
2019-04-28T21:26:54.667Z,60.66
2019-04-28T21:29:25.820Z,60.49
2019-04-28T21:31:55.372Z,59.97
2019-04-28T21:34:24.925Z,59.57
2019-04-28T21:36:54.462Z,59.76
2019-04-28T21:39:23.989Z,59.96
2019-04-28T21:41:53.834Z,60.01
2019-04-28T21:44:36.216Z,59.26
2019-04-28T21:47:18.232Z,58.99
2019-04-28T21:49:47.761Z,58.81
2019-04-28T21:52:17.331Z,59.41
2019-04-28T21:54:46.807Z,59.81
2019-04-28T21:57:16.358Z,60.29
2019-04-28T21:59:45.879Z,60.26
2019-04-28T22:02:15.410Z,60.50
2019-04-28T22:04:47.013Z,60.76
2019-04-28T22:07:16.256Z,60.46
2019-04-28T22:09:45.869Z,60.26
2019-04-28T22:12:17.023Z,60.18
2019-04-28T22:14:46.618Z,60.08
2019-04-28T22:17:16.155Z,59.97
2019-04-28T22:19:46.649Z,60.03
2019-04-28T22:22:16.212Z,60.42
2019-04-28T22:24:55.132Z,60.44
2019-04-28T22:27:29.026Z,60.25
2019-04-28T22:29:58.589Z,60.47
2019-04-28T22:32:28.117Z,60.70
2019-04-28T22:34:57.647Z,60.46
2019-04-28T22:37:27.201Z,60.66
2019-04-28T22:39:56.720Z,60.21
2019-04-28T22:42:26.257Z,60.19
2019-04-28T22:44:55.789Z,59.90
2019-04-28T22:47:25.329Z,60.10
2019-04-28T22:49:54.861Z,60.31
2019-04-28T22:52:24.480Z,60.21
2019-04-28T22:55:13.088Z,59.94
2019-04-28T22:57:52.744Z,60.12
2019-04-28T23:00:50.946Z,60.23
2019-04-28T23:03:45.838Z,59.85
2019-04-28T23:06:15.624Z,60.02
2019-04-28T23:08:45.152Z,60.26
2019-04-28T23:11:14.704Z,60.19
2019-04-28T23:13:44.312Z,59.94
2019-04-28T23:16:13.852Z,59.86
2019-04-28T23:18:43.381Z,59.79
2019-04-28T23:21:22.814Z,59.72
2019-04-28T23:23:52.342Z,59.60
2019-04-28T23:26:21.968Z,59.58
2019-04-28T23:28:51.514Z,59.54
2019-04-28T23:31:21.036Z,59.01
2019-04-28T23:33:50.554Z,58.81
2019-04-28T23:36:20.089Z,59.35
2019-04-28T23:38:49.613Z,59.74
2019-04-28T23:41:34.354Z,60.19
2019-04-28T23:44:03.966Z,60.17
2019-04-28T23:46:51.108Z,60.21
2019-04-28T23:49:20.682Z,60.44
2019-04-28T23:51:58.559Z,60.49
2019-04-28T23:54:28.095Z,60.91
2019-04-28T23:56:57.627Z,60.51
2019-04-28T23:59:27.161Z,60.60
